sensor_id;sensor_type;location;lat;lon;timestamp;temperature;humidity
23839;DHT22;12100;44.384;20.272;2022-08-19T00:01:18;20.90;99.90
23839;DHT22;12100;44.384;20.272;2022-08-19T00:03:44;20.80;99.90
23839;DHT22;12100;44.384;20.272;2022-08-19T00:06:10;20.80;99.90
23839;DHT22;12100;44.384;20.272;2022-08-19T00:08:36;20.70;99.90
23839;DHT22;12100;44.384;20.272;2022-08-19T00:11:02;20.70;99.90
23839;DHT22;12100;44.384;20.272;2022-08-19T00:13:28;20.70;99.90
23839;DHT22;12100;44.384;20.272;2022-08-19T00:15:55;20.60;99.90
23839;DHT22;12100;44.384;20.272;2022-08-19T00:18:21;20.50;99.90
23839;DHT22;12100;44.384;20.272;2022-08-19T00:20:47;20.60;99.90
23839;DHT22;12100;44.384;20.272;2022-08-19T00:23:13;20.70;99.90
23839;DHT22;12100;44.384;20.272;2022-08-19T00:25:40;20.60;99.90
23839;DHT22;12100;44.384;20.272;2022-08-19T00:28:06;20.50;99.90
23839;DHT22;12100;44.384;20.272;2022-08-19T00:30:32;20.40;99.90
23839;DHT22;12100;44.384;20.272;2022-08-19T00:32:58;20.40;99.90
23839;DHT22;12100;44.384;20.272;2022-08-19T00:35:24;20.50;99.90
23839;DHT22;12100;44.384;20.272;2022-08-19T00:37:52;20.50;99.90
23839;DHT22;12100;44.384;20.272;2022-08-19T00:40:18;20.50;99.90
23839;DHT22;12100;44.384;20.272;2022-08-19T00:42:44;20.60;99.90
23839;DHT22;12100;44.384;20.272;2022-08-19T00:47:44;20.40;99.90
23839;DHT22;12100;44.384;20.272;2022-08-19T00:50:11;20.30;99.90
23839;DHT22;12100;44.384;20.272;2022-08-19T00:52:45;20.30;99.90
23839;DHT22;12100;44.384;20.272;2022-08-19T00:55:16;20.20;99.90
23839;DHT22;12100;44.384;20.272;2022-08-19T00:57:47;20.20;99.90
23839;DHT22;12100;44.384;20.272;2022-08-19T01:00:16;20.10;99.90
23839;DHT22;12100;44.384;20.272;2022-08-19T01:02:43;20.20;99.90
23839;DHT22;12100;44.384;20.272;2022-08-19T01:05:13;20.30;99.90
23839;DHT22;12100;44.384;20.272;2022-08-19T01:07:41;20.20;99.90
23839;DHT22;12100;44.384;20.272;2022-08-19T01:10:11;20.20;99.90
23839;DHT22;12100;44.384;20.272;2022-08-19T01:12:38;20.10;99.90
23839;DHT22;12100;44.384;20.272;2022-08-19T01:17:36;19.80;99.90
23839;DHT22;12100;44.384;20.272;2022-08-19T01:20:05;19.80;99.90
23839;DHT22;12100;44.384;20.272;2022-08-19T01:22:43;19.90;99.90
23839;DHT22;12100;44.384;20.272;2022-08-19T01:25:09;20.00;99.90
23839;DHT22;12100;44.384;20.272;2022-08-19T01:27:40;19.90;99.90
23839;DHT22;12100;44.384;20.272;2022-08-19T01:30:07;19.90;99.90
23839;DHT22;12100;44.384;20.272;2022-08-19T01:32:34;19.90;99.90
23839;DHT22;12100;44.384;20.272;2022-08-19T01:35:01;19.90;99.90
23839;DHT22;12100;44.384;20.272;2022-08-19T01:37:28;19.90;99.90
23839;DHT22;12100;44.384;20.272;2022-08-19T01:39:56;19.90;99.90
23839;DHT22;12100;44.384;20.272;2022-08-19T01:42:21;19.80;99.90
23839;DHT22;12100;44.384;20.272;2022-08-19T01:44:47;19.80;99.90
23839;DHT22;12100;44.384;20.272;2022-08-19T01:47:14;19.70;99.90
23839;DHT22;12100;44.384;20.272;2022-08-19T01:49:41;19.60;99.90
23839;DHT22;12100;44.384;20.272;2022-08-19T01:54:33;19.60;99.90
23839;DHT22;12100;44.384;20.272;2022-08-19T01:57:03;19.40;99.90
23839;DHT22;12100;44.384;20.272;2022-08-19T01:59:32;19.40;99.90
23839;DHT22;12100;44.384;20.272;2022-08-19T02:01:58;19.50;99.90
23839;DHT22;12100;44.384;20.272;2022-08-19T02:06:51;19.30;99.90
23839;DHT22;12100;44.384;20.272;2022-08-19T02:09:17;19.20;99.90
23839;DHT22;12100;44.384;20.272;2022-08-19T02:11:43;19.20;99.90
23839;DHT22;12100;44.384;20.272;2022-08-19T02:14:09;19.10;99.90
23839;DHT22;12100;44.384;20.272;2022-08-19T02:16:36;19.10;99.90
23839;DHT22;12100;44.384;20.272;2022-08-19T02:21:29;19.00;99.90
23839;DHT22;12100;44.384;20.272;2022-08-19T02:23:55;18.90;99.90
23839;DHT22;12100;44.384;20.272;2022-08-19T02:26:22;18.90;99.90
23839;DHT22;12100;44.384;20.272;2022-08-19T02:28:48;19.00;99.90
23839;DHT22;12100;44.384;20.272;2022-08-19T02:31:17;19.00;99.90
23839;DHT22;12100;44.384;20.272;2022-08-19T02:33:45;19.20;99.90
23839;DHT22;12100;44.384;20.272;2022-08-19T02:36:12;19.20;99.90
23839;DHT22;12100;44.384;20.272;2022-08-19T02:38:39;19.30;99.90
23839;DHT22;12100;44.384;20.272;2022-08-19T02:41:10;19.30;99.90
23839;DHT22;12100;44.384;20.272;2022-08-19T02:43:36;19.40;99.90
23839;DHT22;12100;44.384;20.272;2022-08-19T02:46:17;19.40;99.90
23839;DHT22;12100;44.384;20.272;2022-08-19T02:48:50;19.50;99.90
23839;DHT22;12100;44.384;20.272;2022-08-19T02:51:25;19.50;99.90
23839;DHT22;12100;44.384;20.272;2022-08-19T02:53:51;19.60;99.90
23839;DHT22;12100;44.384;20.272;2022-08-19T02:56:18;19.60;99.90
23839;DHT22;12100;44.384;20.272;2022-08-19T02:58:44;19.60;99.90
23839;DHT22;12100;44.384;20.272;2022-08-19T03:01:11;19.60;99.90
23839;DHT22;12100;44.384;20.272;2022-08-19T03:03:38;19.60;99.90
23839;DHT22;12100;44.384;20.272;2022-08-19T03:06:14;19.60;99.90
23839;DHT22;12100;44.384;20.272;2022-08-19T03:08:43;19.60;99.90
23839;DHT22;12100;44.384;20.272;2022-08-19T03:11:30;19.70;99.90
23839;DHT22;12100;44.384;20.272;2022-08-19T03:13:57;19.70;99.90
23839;DHT22;12100;44.384;20.272;2022-08-19T03:16:24;19.70;99.90
23839;DHT22;12100;44.384;20.272;2022-08-19T03:18:51;19.60;99.90
23839;DHT22;12100;44.384;20.272;2022-08-19T03:21:23;19.50;99.90
23839;DHT22;12100;44.384;20.272;2022-08-19T03:23:53;19.40;99.90
23839;DHT22;12100;44.384;20.272;2022-08-19T03:26:19;19.40;99.90
23839;DHT22;12100;44.384;20.272;2022-08-19T03:28:45;19.30;99.90
23839;DHT22;12100;44.384;20.272;2022-08-19T03:31:17;19.40;99.90
23839;DHT22;12100;44.384;20.272;2022-08-19T03:33:44;19.40;99.90
23839;DHT22;12100;44.384;20.272;2022-08-19T03:36:13;19.40;99.90
23839;DHT22;12100;44.384;20.272;2022-08-19T03:38:45;19.30;99.90
23839;DHT22;12100;44.384;20.272;2022-08-19T03:41:15;19.20;99.90
23839;DHT22;12100;44.384;20.272;2022-08-19T03:43:42;19.10;99.90
23839;DHT22;12100;44.384;20.272;2022-08-19T03:51:04;18.90;99.90
23839;DHT22;12100;44.384;20.272;2022-08-19T03:53:31;18.80;99.90
23839;DHT22;12100;44.384;20.272;2022-08-19T03:58:29;18.80;99.90
23839;DHT22;12100;44.384;20.272;2022-08-19T04:00:56;18.80;99.90
23839;DHT22;12100;44.384;20.272;2022-08-19T04:03:22;18.90;99.90
23839;DHT22;12100;44.384;20.272;2022-08-19T04:05:48;19.10;99.90
23839;DHT22;12100;44.384;20.272;2022-08-19T04:08:16;19.30;99.90
23839;DHT22;12100;44.384;20.272;2022-08-19T04:10:48;19.40;99.90
23839;DHT22;12100;44.384;20.272;2022-08-19T04:13:16;19.60;99.90
23839;DHT22;12100;44.384;20.272;2022-08-19T04:15:43;19.80;99.90
23839;DHT22;12100;44.384;20.272;2022-08-19T04:18:10;20.10;99.90
23839;DHT22;12100;44.384;20.272;2022-08-19T04:20:47;20.40;99.90
23839;DHT22;12100;44.384;20.272;2022-08-19T04:23:14;20.80;99.90
23839;DHT22;12100;44.384;20.272;2022-08-19T04:25:43;21.00;99.90
23839;DHT22;12100;44.384;20.272;2022-08-19T04:28:11;21.20;99.90
23839;DHT22;12100;44.384;20.272;2022-08-19T04:30:43;21.60;99.90
23839;DHT22;12100;44.384;20.272;2022-08-19T04:33:10;21.90;99.90
23839;DHT22;12100;44.384;20.272;2022-08-19T04:35:41;22.30;99.90
23839;DHT22;12100;44.384;20.272;2022-08-19T04:38:08;22.60;99.90
23839;DHT22;12100;44.384;20.272;2022-08-19T04:45:50;23.60;94.20
23839;DHT22;12100;44.384;20.272;2022-08-19T04:48:17;23.80;93.40
23839;DHT22;12100;44.384;20.272;2022-08-19T04:50:56;24.20;92.90
23839;DHT22;12100;44.384;20.272;2022-08-19T04:53:30;24.90;90.60
23839;DHT22;12100;44.384;20.272;2022-08-19T04:55:58;25.30;87.50
23839;DHT22;12100;44.384;20.272;2022-08-19T04:58:26;25.80;83.60
23839;DHT22;12100;44.384;20.272;2022-08-19T05:00:53;26.40;81.50
23839;DHT22;12100;44.384;20.272;2022-08-19T05:03:19;27.20;79.60
23839;DHT22;12100;44.384;20.272;2022-08-19T05:05:46;27.80;75.70
23839;DHT22;12100;44.384;20.272;2022-08-19T05:08:17;28.40;73.50
23839;DHT22;12100;44.384;20.272;2022-08-19T05:10:48;28.70;71.10
23839;DHT22;12100;44.384;20.272;2022-08-19T05:13:16;29.20;69.50
23839;DHT22;12100;44.384;20.272;2022-08-19T05:15:43;30.00;64.70
23839;DHT22;12100;44.384;20.272;2022-08-19T05:18:10;30.00;65.20
23839;DHT22;12100;44.384;20.272;2022-08-19T05:20:54;30.50;64.50
23839;DHT22;12100;44.384;20.272;2022-08-19T05:23:38;31.00;62.80
23839;DHT22;12100;44.384;20.272;2022-08-19T05:26:04;31.50;61.30
23839;DHT22;12100;44.384;20.272;2022-08-19T05:28:30;31.80;60.30
23839;DHT22;12100;44.384;20.272;2022-08-19T05:30:56;32.10;59.30
23839;DHT22;12100;44.384;20.272;2022-08-19T05:33:22;32.50;57.90
23839;DHT22;12100;44.384;20.272;2022-08-19T05:35:50;32.40;56.50
23839;DHT22;12100;44.384;20.272;2022-08-19T05:38:17;33.10;56.60
23839;DHT22;12100;44.384;20.272;2022-08-19T05:40:43;33.70;55.20
23839;DHT22;12100;44.384;20.272;2022-08-19T05:43:13;33.80;55.00
23839;DHT22;12100;44.384;20.272;2022-08-19T05:45:42;34.20;53.40
23839;DHT22;12100;44.384;20.272;2022-08-19T05:48:11;34.30;51.90
23839;DHT22;12100;44.384;20.272;2022-08-19T05:50:39;33.90;51.80
23839;DHT22;12100;44.384;20.272;2022-08-19T05:53:05;34.50;52.20
23839;DHT22;12100;44.384;20.272;2022-08-19T05:55:31;35.00;50.30
23839;DHT22;12100;44.384;20.272;2022-08-19T05:57:57;35.20;48.70
23839;DHT22;12100;44.384;20.272;2022-08-19T06:00:23;34.80;48.10
23839;DHT22;12100;44.384;20.272;2022-08-19T06:02:49;35.50;45.90
23839;DHT22;12100;44.384;20.272;2022-08-19T06:07:42;36.40;46.00
23839;DHT22;12100;44.384;20.272;2022-08-19T06:20:09;37.40;43.90
23839;DHT22;12100;44.384;20.272;2022-08-19T06:22:45;38.70;41.20
23839;DHT22;12100;44.384;20.272;2022-08-19T06:25:14;39.20;39.20
23839;DHT22;12100;44.384;20.272;2022-08-19T06:27:41;40.00;39.20
23839;DHT22;12100;44.384;20.272;2022-08-19T06:30:07;39.60;39.40
23839;DHT22;12100;44.384;20.272;2022-08-19T06:32:33;39.70;37.80
23839;DHT22;12100;44.384;20.272;2022-08-19T06:34:59;40.50;37.40
23839;DHT22;12100;44.384;20.272;2022-08-19T06:37:25;40.90;37.90
23839;DHT22;12100;44.384;20.272;2022-08-19T06:39:51;41.30;36.50
23839;DHT22;12100;44.384;20.272;2022-08-19T06:42:16;40.50;37.40
23839;DHT22;12100;44.384;20.272;2022-08-19T06:44:46;40.70;36.40
23839;DHT22;12100;44.384;20.272;2022-08-19T06:47:18;39.40;38.70
23839;DHT22;12100;44.384;20.272;2022-08-19T06:49:45;39.80;38.70
23839;DHT22;12100;44.384;20.272;2022-08-19T06:52:12;40.10;38.30
23839;DHT22;12100;44.384;20.272;2022-08-19T06:54:39;39.90;37.90
23839;DHT22;12100;44.384;20.272;2022-08-19T06:57:05;40.80;37.70
23839;DHT22;12100;44.384;20.272;2022-08-19T06:59:32;41.10;37.10
23839;DHT22;12100;44.384;20.272;2022-08-19T07:04:29;41.60;36.40
23839;DHT22;12100;44.384;20.272;2022-08-19T07:06:59;42.20;35.00
23839;DHT22;12100;44.384;20.272;2022-08-19T07:09:26;41.90;34.70
23839;DHT22;12100;44.384;20.272;2022-08-19T07:11:53;41.70;36.50
23839;DHT22;12100;44.384;20.272;2022-08-19T07:14:22;42.30;35.50
23839;DHT22;12100;44.384;20.272;2022-08-19T07:16:50;42.20;35.10
23839;DHT22;12100;44.384;20.272;2022-08-19T07:19:17;41.50;36.00
23839;DHT22;12100;44.384;20.272;2022-08-19T07:21:44;40.90;37.10
23839;DHT22;12100;44.384;20.272;2022-08-19T07:24:11;41.50;36.80
23839;DHT22;12100;44.384;20.272;2022-08-19T07:26:40;41.10;37.60
23839;DHT22;12100;44.384;20.272;2022-08-19T07:29:07;41.30;37.30
23839;DHT22;12100;44.384;20.272;2022-08-19T07:31:34;41.50;37.70
23839;DHT22;12100;44.384;20.272;2022-08-19T07:34:07;41.40;37.80
23839;DHT22;12100;44.384;20.272;2022-08-19T07:36:35;41.20;36.60
23839;DHT22;12100;44.384;20.272;2022-08-19T07:39:07;40.00;39.00
23839;DHT22;12100;44.384;20.272;2022-08-19T07:41:35;38.70;40.80
23839;DHT22;12100;44.384;20.272;2022-08-19T07:44:03;38.70;42.90
23839;DHT22;12100;44.384;20.272;2022-08-19T07:46:31;37.90;43.60
23839;DHT22;12100;44.384;20.272;2022-08-19T07:48:57;37.80;43.50
23839;DHT22;12100;44.384;20.272;2022-08-19T07:51:23;37.50;45.60
23839;DHT22;12100;44.384;20.272;2022-08-19T07:53:49;37.30;45.00
23839;DHT22;12100;44.384;20.272;2022-08-19T07:56:18;36.90;45.60
23839;DHT22;12100;44.384;20.272;2022-08-19T07:58:46;36.90;46.10
23839;DHT22;12100;44.384;20.272;2022-08-19T08:01:15;36.00;48.00
23839;DHT22;12100;44.384;20.272;2022-08-19T08:03:42;36.10;47.20
23839;DHT22;12100;44.384;20.272;2022-08-19T08:06:27;36.00;47.70
23839;DHT22;12100;44.384;20.272;2022-08-19T08:09:12;36.00;48.40
23839;DHT22;12100;44.384;20.272;2022-08-19T08:11:50;36.20;48.50
23839;DHT22;12100;44.384;20.272;2022-08-19T08:14:25;36.10;48.70
23839;DHT22;12100;44.384;20.272;2022-08-19T08:16:51;36.10;48.90
23839;DHT22;12100;44.384;20.272;2022-08-19T08:19:20;36.30;47.50
23839;DHT22;12100;44.384;20.272;2022-08-19T08:21:46;36.00;48.20
23839;DHT22;12100;44.384;20.272;2022-08-19T08:24:13;35.90;48.30
23839;DHT22;12100;44.384;20.272;2022-08-19T08:26:39;36.00;48.90
23839;DHT22;12100;44.384;20.272;2022-08-19T08:29:06;35.70;48.30
23839;DHT22;12100;44.384;20.272;2022-08-19T08:31:35;36.10;49.40
23839;DHT22;12100;44.384;20.272;2022-08-19T08:34:02;36.00;49.10
23839;DHT22;12100;44.384;20.272;2022-08-19T08:36:28;36.40;48.10
23839;DHT22;12100;44.384;20.272;2022-08-19T08:38:54;36.40;48.90
23839;DHT22;12100;44.384;20.272;2022-08-19T08:43:59;36.20;49.00
23839;DHT22;12100;44.384;20.272;2022-08-19T08:51:52;35.90;48.20
23839;DHT22;12100;44.384;20.272;2022-08-19T08:54:20;35.70;49.20
23839;DHT22;12100;44.384;20.272;2022-08-19T08:56:50;35.80;49.70
23839;DHT22;12100;44.384;20.272;2022-08-19T08:59:28;35.90;49.30
23839;DHT22;12100;44.384;20.272;2022-08-19T09:01:58;36.20;50.00
23839;DHT22;12100;44.384;20.272;2022-08-19T09:04:24;35.90;48.10
23839;DHT22;12100;44.384;20.272;2022-08-19T09:09:45;36.30;49.30
23839;DHT22;12100;44.384;20.272;2022-08-19T09:15:14;36.00;49.00
23839;DHT22;12100;44.384;20.272;2022-08-19T09:17:41;36.10;49.40
23839;DHT22;12100;44.384;20.272;2022-08-19T09:22:37;36.10;49.00
23839;DHT22;12100;44.384;20.272;2022-08-19T09:25:05;36.10;50.10
23839;DHT22;12100;44.384;20.272;2022-08-19T09:27:31;35.90;47.20
23839;DHT22;12100;44.384;20.272;2022-08-19T09:29:57;35.90;47.60
23839;DHT22;12100;44.384;20.272;2022-08-19T09:32:24;36.10;46.70
23839;DHT22;12100;44.384;20.272;2022-08-19T09:34:53;36.10;46.00
23839;DHT22;12100;44.384;20.272;2022-08-19T09:37:24;36.00;46.30
23839;DHT22;12100;44.384;20.272;2022-08-19T09:39:50;36.20;46.10
23839;DHT22;12100;44.384;20.272;2022-08-19T09:42:16;35.90;45.90
23839;DHT22;12100;44.384;20.272;2022-08-19T09:44:43;35.90;47.00
23839;DHT22;12100;44.384;20.272;2022-08-19T09:47:10;36.10;47.60
23839;DHT22;12100;44.384;20.272;2022-08-19T09:49:37;35.90;46.80
23839;DHT22;12100;44.384;20.272;2022-08-19T09:52:08;36.30;46.50
23839;DHT22;12100;44.384;20.272;2022-08-19T09:54:35;36.30;45.90
23839;DHT22;12100;44.384;20.272;2022-08-19T09:57:01;36.30;45.20
23839;DHT22;12100;44.384;20.272;2022-08-19T09:59:27;36.60;46.00
23839;DHT22;12100;44.384;20.272;2022-08-19T10:01:53;36.40;45.80
23839;DHT22;12100;44.384;20.272;2022-08-19T10:04:19;36.60;45.70
23839;DHT22;12100;44.384;20.272;2022-08-19T10:06:47;36.50;47.00
23839;DHT22;12100;44.384;20.272;2022-08-19T10:09:16;36.60;48.10
23839;DHT22;12100;44.384;20.272;2022-08-19T10:11:44;36.70;44.50
23839;DHT22;12100;44.384;20.272;2022-08-19T10:14:15;36.60;45.80
23839;DHT22;12100;44.384;20.272;2022-08-19T10:16:43;36.60;44.60
23839;DHT22;12100;44.384;20.272;2022-08-19T10:19:09;36.50;43.60
23839;DHT22;12100;44.384;20.272;2022-08-19T10:21:35;36.90;46.10
23839;DHT22;12100;44.384;20.272;2022-08-19T10:24:03;36.60;46.00
23839;DHT22;12100;44.384;20.272;2022-08-19T10:26:33;36.60;46.70
23839;DHT22;12100;44.384;20.272;2022-08-19T10:29:00;36.80;46.30
23839;DHT22;12100;44.384;20.272;2022-08-19T10:31:29;36.90;46.10
23839;DHT22;12100;44.384;20.272;2022-08-19T10:33:56;37.10;46.10
23839;DHT22;12100;44.384;20.272;2022-08-19T10:36:32;37.00;46.90
23839;DHT22;12100;44.384;20.272;2022-08-19T10:38:59;37.10;44.40
23839;DHT22;12100;44.384;20.272;2022-08-19T10:41:32;37.20;44.20
23839;DHT22;12100;44.384;20.272;2022-08-19T10:44:02;37.30;44.00
23839;DHT22;12100;44.384;20.272;2022-08-19T10:46:29;37.20;43.60
23839;DHT22;12100;44.384;20.272;2022-08-19T10:48:58;36.80;42.10
23839;DHT22;12100;44.384;20.272;2022-08-19T10:51:24;36.90;44.50
23839;DHT22;12100;44.384;20.272;2022-08-19T10:54:09;37.00;44.20
23839;DHT22;12100;44.384;20.272;2022-08-19T10:56:35;37.00;43.10
23839;DHT22;12100;44.384;20.272;2022-08-19T10:59:20;37.10;44.40
23839;DHT22;12100;44.384;20.272;2022-08-19T11:01:47;37.00;42.60
23839;DHT22;12100;44.384;20.272;2022-08-19T11:04:14;37.00;41.40
23839;DHT22;12100;44.384;20.272;2022-08-19T11:06:43;36.90;41.60
23839;DHT22;12100;44.384;20.272;2022-08-19T11:09:11;36.70;41.90
23839;DHT22;12100;44.384;20.272;2022-08-19T11:11:37;36.60;41.90
23839;DHT22;12100;44.384;20.272;2022-08-19T11:14:11;36.80;41.70
23839;DHT22;12100;44.384;20.272;2022-08-19T11:16:38;36.60;42.10
23839;DHT22;12100;44.384;20.272;2022-08-19T11:19:05;36.70;42.30
23839;DHT22;12100;44.384;20.272;2022-08-19T11:21:36;36.50;42.20
23839;DHT22;12100;44.384;20.272;2022-08-19T11:24:15;36.50;41.50
23839;DHT22;12100;44.384;20.272;2022-08-19T11:26:43;36.60;42.50
23839;DHT22;12100;44.384;20.272;2022-08-19T11:29:12;36.70;41.00
23839;DHT22;12100;44.384;20.272;2022-08-19T11:31:40;36.70;41.50
23839;DHT22;12100;44.384;20.272;2022-08-19T11:34:11;36.90;43.00
23839;DHT22;12100;44.384;20.272;2022-08-19T11:36:40;36.90;41.30
23839;DHT22;12100;44.384;20.272;2022-08-19T11:39:09;36.90;41.60
23839;DHT22;12100;44.384;20.272;2022-08-19T11:41:35;36.80;40.20
23839;DHT22;12100;44.384;20.272;2022-08-19T11:44:02;36.90;40.50
23839;DHT22;12100;44.384;20.272;2022-08-19T11:46:30;37.00;40.60
23839;DHT22;12100;44.384;20.272;2022-08-19T11:48:57;37.10;40.90
23839;DHT22;12100;44.384;20.272;2022-08-19T11:51:25;37.00;40.50
23839;DHT22;12100;44.384;20.272;2022-08-19T11:53:53;37.00;41.10
23839;DHT22;12100;44.384;20.272;2022-08-19T11:56:19;36.80;40.50
23839;DHT22;12100;44.384;20.272;2022-08-19T11:58:46;36.90;40.60
23839;DHT22;12100;44.384;20.272;2022-08-19T12:01:15;36.90;39.40
23839;DHT22;12100;44.384;20.272;2022-08-19T12:03:42;37.10;39.60
23839;DHT22;12100;44.384;20.272;2022-08-19T12:06:12;37.10;40.60
23839;DHT22;12100;44.384;20.272;2022-08-19T12:08:39;37.30;39.40
23839;DHT22;12100;44.384;20.272;2022-08-19T12:11:06;37.00;38.90
23839;DHT22;12100;44.384;20.272;2022-08-19T12:13:35;37.10;39.10
23839;DHT22;12100;44.384;20.272;2022-08-19T12:16:09;37.40;38.40
23839;DHT22;12100;44.384;20.272;2022-08-19T12:18:38;37.30;39.40
23839;DHT22;12100;44.384;20.272;2022-08-19T12:21:04;37.20;38.20
23839;DHT22;12100;44.384;20.272;2022-08-19T12:23:32;37.40;39.40
23839;DHT22;12100;44.384;20.272;2022-08-19T12:25:59;37.40;36.50
23839;DHT22;12100;44.384;20.272;2022-08-19T12:28:27;37.50;37.00
23839;DHT22;12100;44.384;20.272;2022-08-19T12:30:56;37.30;38.70
23839;DHT22;12100;44.384;20.272;2022-08-19T12:33:22;37.10;38.50
23839;DHT22;12100;44.384;20.272;2022-08-19T12:36:04;37.30;37.70
23839;DHT22;12100;44.384;20.272;2022-08-19T12:56:07;37.40;36.60
23839;DHT22;12100;44.384;20.272;2022-08-19T12:58:34;37.30;37.90
23839;DHT22;12100;44.384;20.272;2022-08-19T13:01:10;37.10;38.40
23839;DHT22;12100;44.384;20.272;2022-08-19T13:03:36;37.30;39.50
23839;DHT22;12100;44.384;20.272;2022-08-19T13:06:04;37.00;38.80
23839;DHT22;12100;44.384;20.272;2022-08-19T13:08:30;37.10;39.50
23839;DHT22;12100;44.384;20.272;2022-08-19T13:10:56;37.00;39.40
23839;DHT22;12100;44.384;20.272;2022-08-19T13:13:22;37.10;39.20
23839;DHT22;12100;44.384;20.272;2022-08-19T13:15:48;37.20;39.70
23839;DHT22;12100;44.384;20.272;2022-08-19T13:18:17;37.20;39.00
23839;DHT22;12100;44.384;20.272;2022-08-19T13:20:43;37.20;38.30
23839;DHT22;12100;44.384;20.272;2022-08-19T13:23:09;37.10;37.30
23839;DHT22;12100;44.384;20.272;2022-08-19T13:25:35;37.10;38.80
23839;DHT22;12100;44.384;20.272;2022-08-19T13:38:13;37.10;37.80
23839;DHT22;12100;44.384;20.272;2022-08-19T13:40:40;37.20;36.60
23839;DHT22;12100;44.384;20.272;2022-08-19T13:43:06;37.10;37.10
23839;DHT22;12100;44.384;20.272;2022-08-19T13:45:33;37.20;36.50
23839;DHT22;12100;44.384;20.272;2022-08-19T13:48:00;37.20;36.80
23839;DHT22;12100;44.384;20.272;2022-08-19T13:50:30;37.10;37.20
23839;DHT22;12100;44.384;20.272;2022-08-19T13:52:57;37.10;38.40
23839;DHT22;12100;44.384;20.272;2022-08-19T13:55:24;37.20;39.40
23839;DHT22;12100;44.384;20.272;2022-08-19T13:57:54;37.20;38.10
23839;DHT22;12100;44.384;20.272;2022-08-19T14:00:22;37.10;35.30
23839;DHT22;12100;44.384;20.272;2022-08-19T14:02:51;37.00;37.90
23839;DHT22;12100;44.384;20.272;2022-08-19T14:05:18;36.90;39.20
23839;DHT22;12100;44.384;20.272;2022-08-19T14:07:44;37.00;40.40
23839;DHT22;12100;44.384;20.272;2022-08-19T14:10:12;36.90;41.10
23839;DHT22;12100;44.384;20.272;2022-08-19T14:12:38;36.70;41.50
23839;DHT22;12100;44.384;20.272;2022-08-19T14:15:07;36.60;41.90
23839;DHT22;12100;44.384;20.272;2022-08-19T14:17:33;36.50;41.10
23839;DHT22;12100;44.384;20.272;2022-08-19T14:20:02;36.60;42.20
23839;DHT22;12100;44.384;20.272;2022-08-19T14:22:34;36.50;41.40
23839;DHT22;12100;44.384;20.272;2022-08-19T14:25:00;36.60;43.30
23839;DHT22;12100;44.384;20.272;2022-08-19T14:27:26;36.30;42.50
23839;DHT22;12100;44.384;20.272;2022-08-19T14:29:52;36.40;43.70
23839;DHT22;12100;44.384;20.272;2022-08-19T14:32:18;36.40;44.00
23839;DHT22;12100;44.384;20.272;2022-08-19T14:34:44;36.30;43.30
23839;DHT22;12100;44.384;20.272;2022-08-19T14:37:14;36.40;44.40
23839;DHT22;12100;44.384;20.272;2022-08-19T14:39:42;36.30;44.70
23839;DHT22;12100;44.384;20.272;2022-08-19T14:42:10;36.30;44.30
23839;DHT22;12100;44.384;20.272;2022-08-19T14:44:36;36.20;44.80
23839;DHT22;12100;44.384;20.272;2022-08-19T14:47:02;36.10;42.70
23839;DHT22;12100;44.384;20.272;2022-08-19T14:49:28;36.10;43.10
23839;DHT22;12100;44.384;20.272;2022-08-19T14:51:54;36.10;44.00
23839;DHT22;12100;44.384;20.272;2022-08-19T14:54:21;36.10;44.50
23839;DHT22;12100;44.384;20.272;2022-08-19T14:56:47;35.90;43.90
23839;DHT22;12100;44.384;20.272;2022-08-19T14:59:13;35.90;44.40
23839;DHT22;12100;44.384;20.272;2022-08-19T15:01:39;35.90;44.20
23839;DHT22;12100;44.384;20.272;2022-08-19T15:04:05;36.00;43.80
23839;DHT22;12100;44.384;20.272;2022-08-19T15:06:31;35.80;43.10
23839;DHT22;12100;44.384;20.272;2022-08-19T15:08:58;35.90;43.80
23839;DHT22;12100;44.384;20.272;2022-08-19T15:11:25;35.90;43.40
23839;DHT22;12100;44.384;20.272;2022-08-19T15:40:55;35.80;43.10
23839;DHT22;12100;44.384;20.272;2022-08-19T15:43:41;34.40;43.10
23839;DHT22;12100;44.384;20.272;2022-08-19T15:46:07;34.30;43.60
23839;DHT22;12100;44.384;20.272;2022-08-19T15:48:33;34.20;44.00
23839;DHT22;12100;44.384;20.272;2022-08-19T15:50:59;34.10;44.00
23839;DHT22;12100;44.384;20.272;2022-08-19T15:53:24;33.90;44.40
23839;DHT22;12100;44.384;20.272;2022-08-19T15:55:51;33.90;45.10
23839;DHT22;12100;44.384;20.272;2022-08-19T15:58:16;33.80;45.10
23839;DHT22;12100;44.384;20.272;2022-08-19T16:01:04;33.70;45.50
23839;DHT22;12100;44.384;20.272;2022-08-19T16:03:49;33.70;45.80
23839;DHT22;12100;44.384;20.272;2022-08-19T16:06:34;33.70;47.10
23839;DHT22;12100;44.384;20.272;2022-08-19T16:09:02;33.60;47.40
23839;DHT22;12100;44.384;20.272;2022-08-19T16:11:31;33.40;48.10
23839;DHT22;12100;44.384;20.272;2022-08-19T16:13:58;33.30;49.70
23839;DHT22;12100;44.384;20.272;2022-08-19T16:16:30;33.10;50.90
23839;DHT22;12100;44.384;20.272;2022-08-19T16:18:57;33.00;51.40
23839;DHT22;12100;44.384;20.272;2022-08-19T16:21:25;32.90;51.20
23839;DHT22;12100;44.384;20.272;2022-08-19T16:23:52;32.80;50.80
23839;DHT22;12100;44.384;20.272;2022-08-19T16:26:19;32.80;50.50
23839;DHT22;12100;44.384;20.272;2022-08-19T16:28:46;32.70;51.30
23839;DHT22;12100;44.384;20.272;2022-08-19T16:31:13;32.60;51.20
23839;DHT22;12100;44.384;20.272;2022-08-19T16:33:40;32.60;51.10
23839;DHT22;12100;44.384;20.272;2022-08-19T16:36:06;32.30;53.30
23839;DHT22;12100;44.384;20.272;2022-08-19T16:38:33;32.20;53.50
23839;DHT22;12100;44.384;20.272;2022-08-19T16:40:59;32.20;49.50
23839;DHT22;12100;44.384;20.272;2022-08-19T16:43:28;32.20;51.20
23839;DHT22;12100;44.384;20.272;2022-08-19T16:45:56;32.10;55.80
23839;DHT22;12100;44.384;20.272;2022-08-19T17:25:03;32.00;55.70
23839;DHT22;12100;44.384;20.272;2022-08-19T17:27:29;30.60;55.90
23839;DHT22;12100;44.384;20.272;2022-08-19T17:29:55;30.50;56.50
23839;DHT22;12100;44.384;20.272;2022-08-19T17:32:24;30.50;57.40
23839;DHT22;12100;44.384;20.272;2022-08-19T17:34:52;30.50;58.40
23839;DHT22;12100;44.384;20.272;2022-08-19T17:37:21;30.50;58.80
23839;DHT22;12100;44.384;20.272;2022-08-19T17:39:47;30.40;59.20
23839;DHT22;12100;44.384;20.272;2022-08-19T17:42:13;30.40;59.40
23839;DHT22;12100;44.384;20.272;2022-08-19T17:44:39;30.40;59.40
23839;DHT22;12100;44.384;20.272;2022-08-19T17:47:05;30.30;59.70
23839;DHT22;12100;44.384;20.272;2022-08-19T17:49:31;30.30;59.80